Devils Elbow, Missouri
Current Conditions -  °F | °C
As of 6:58 PM on Saturday 25 Oct 2014 (Local Time) from KTBN Reporting Station
Clear Clear  
Wind Chill: 70°   Ceiling: Unl
Heat Index: 70°   Visibility: 10mi
Dew Point: 62°   Wind: 2mph
Humidity: 74%   Direction: 190°S
Pressure: 30.03"   Gusts: NA
Location:  37.85°N, 92.06°W
Report Text: KTBN 252358Z AUTO 19002KT 10SM CLR 21/17 A3003 RMK AO2 SLP166 T02120165 10274 20208 55000
Loading
Personal Weather Stations






























Interactive Weather Map
Tropical Storm Tracking
New forecast layout! Learn more

10-Day Weather Forecast

Advertisements
Track Severe Weather on mobile